sensor_id;sensor_type;location;lat;lon;timestamp;pressure;altitude;pressure_sealevel;temperature;humidity
39823;BME280;25499;53.958;10.970;2023-02-05T07:22:20;103345.97;;;-1.83;90.79
39823;BME280;25499;53.958;10.970;2023-02-05T07:24:45;103347.88;;;-1.80;90.74
39823;BME280;25499;53.958;10.970;2023-02-05T07:27:11;103348.66;;;-1.81;90.50
39823;BME280;25499;53.958;10.970;2023-02-05T07:29:36;103346.09;;;-1.81;90.61
39823;BME280;25499;53.958;10.970;2023-02-05T07:32:02;103356.03;;;-1.84;90.44
39823;BME280;25499;53.958;10.970;2023-02-05T07:34:27;103360.66;;;-1.80;90.25
39823;BME280;25499;53.958;10.970;2023-02-05T07:36:52;103358.38;;;-1.77;90.18
39823;BME280;25499;53.958;10.970;2023-02-05T07:39:18;103355.22;;;-1.75;90.06
39823;BME280;25499;53.958;10.970;2023-02-05T07:41:44;103364.78;;;-1.72;90.10
39823;BME280;25499;53.958;10.970;2023-02-05T07:44:09;103365.06;;;-1.69;90.30
39823;BME280;25499;53.958;10.970;2023-02-05T07:46:35;103359.41;;;-1.75;90.43
39823;BME280;25499;53.958;10.970;2023-02-05T07:49:00;103363.47;;;-1.77;90.41
39823;BME280;25499;53.958;10.970;2023-02-05T07:51:26;103367.19;;;-1.74;90.24
39823;BME280;25499;53.958;10.970;2023-02-05T07:53:52;103369.28;;;-1.70;90.18
39823;BME280;25499;53.958;10.970;2023-02-05T07:56:17;103367.75;;;-1.67;89.98
39823;BME280;25499;53.958;10.970;2023-02-05T07:58:46;103367.91;;;-1.66;90.25
39823;BME280;25499;53.958;10.970;2023-02-05T08:01:11;103360.72;;;-1.70;90.31
39823;BME280;25499;53.958;10.970;2023-02-05T08:03:37;103368.66;;;-1.67;90.34
39823;BME280;25499;53.958;10.970;2023-02-05T08:06:06;103362.97;;;-1.73;90.52
39823;BME280;25499;53.958;10.970;2023-02-05T08:08:32;103373.63;;;-1.69;90.80
39823;BME280;25499;53.958;10.970;2023-02-05T08:11:03;103374.03;;;-1.64;90.72
39823;BME280;25499;53.958;10.970;2023-02-05T08:13:29;103364.94;;;-1.71;90.66
39823;BME280;25499;53.958;10.970;2023-02-05T08:15:55;103375.00;;;-1.72;90.70
39823;BME280;25499;53.958;10.970;2023-02-05T08:18:21;103368.03;;;-1.64;90.79
39823;BME280;25499;53.958;10.970;2023-02-05T08:20:46;103369.69;;;-1.65;90.69
39823;BME280;25499;53.958;10.970;2023-02-05T08:23:11;103379.41;;;-1.61;90.53
39823;BME280;25499;53.958;10.970;2023-02-05T08:25:38;103381.75;;;-1.54;90.57
39823;BME280;25499;53.958;10.970;2023-02-05T08:28:04;103385.97;;;-1.54;90.41
39823;BME280;25499;53.958;10.970;2023-02-05T08:30:29;103378.56;;;-1.51;90.05
39823;BME280;25499;53.958;10.970;2023-02-05T08:32:55;103381.19;;;-1.41;90.02
39823;BME280;25499;53.958;10.970;2023-02-05T08:35:20;103376.97;;;-1.40;89.80
39823;BME280;25499;53.958;10.970;2023-02-05T08:37:46;103373.53;;;-1.41;89.71
39823;BME280;25499;53.958;10.970;2023-02-05T08:40:12;103363.03;;;-1.44;89.32
39823;BME280;25499;53.958;10.970;2023-02-05T08:42:38;103358.44;;;-1.38;89.08
39823;BME280;25499;53.958;10.970;2023-02-05T08:45:04;103367.91;;;-1.37;88.98
39823;BME280;25499;53.958;10.970;2023-02-05T08:47:34;103359.38;;;-1.37;88.84
39823;BME280;25499;53.958;10.970;2023-02-05T08:49:59;103362.94;;;-1.35;88.54
39823;BME280;25499;53.958;10.970;2023-02-05T08:52:25;103357.84;;;-1.35;88.45
39823;BME280;25499;53.958;10.970;2023-02-05T08:54:50;103357.31;;;-1.31;88.57
39823;BME280;25499;53.958;10.970;2023-02-05T08:57:15;103342.91;;;-1.30;88.58
39823;BME280;25499;53.958;10.970;2023-02-05T08:59:41;103346.34;;;-1.30;88.57
39823;BME280;25499;53.958;10.970;2023-02-05T09:02:07;103353.59;;;-1.35;88.46
39823;BME280;25499;53.958;10.970;2023-02-05T09:04:32;103348.69;;;-1.23;88.59
39823;BME280;25499;53.958;10.970;2023-02-05T09:06:57;103353.69;;;-1.14;88.58
39823;BME280;25499;53.958;10.970;2023-02-05T09:09:23;103348.31;;;-1.17;88.49
39823;BME280;25499;53.958;10.970;2023-02-05T09:11:49;103362.28;;;-1.14;88.57
39823;BME280;25499;53.958;10.970;2023-02-05T09:14:15;103364.97;;;-1.12;88.36
39823;BME280;25499;53.958;10.970;2023-02-05T09:16:40;103371.00;;;-1.01;88.19
39823;BME280;25499;53.958;10.970;2023-02-05T09:19:06;103355.91;;;-1.08;87.89
39823;BME280;25499;53.958;10.970;2023-02-05T09:21:32;103359.97;;;-1.00;87.85
39823;BME280;25499;53.958;10.970;2023-02-05T09:23:58;103353.38;;;-0.98;87.65
39823;BME280;25499;53.958;10.970;2023-02-05T09:26:24;103347.19;;;-1.00;87.44
39823;BME280;25499;53.958;10.970;2023-02-05T09:28:49;103353.13;;;-0.91;87.29
39823;BME280;25499;53.958;10.970;2023-02-05T09:31:17;103350.97;;;-0.86;86.87
39823;BME280;25499;53.958;10.970;2023-02-05T09:33:44;103340.97;;;-0.83;86.78
39823;BME280;25499;53.958;10.970;2023-02-05T09:36:18;103334.09;;;-0.84;86.63
39823;BME280;25499;53.958;10.970;2023-02-05T09:38:44;103348.03;;;-0.70;86.65
39823;BME280;25499;53.958;10.970;2023-02-05T09:46:38;103344.63;;;-0.50;86.53
39823;BME280;25499;53.958;10.970;2023-02-05T09:51:58;103345.91;;;-0.25;85.81
39823;BME280;25499;53.958;10.970;2023-02-05T09:54:28;103340.50;;;-0.07;85.42
39823;BME280;25499;53.958;10.970;2023-02-05T09:57:03;103338.31;;;-0.03;84.86
39823;BME280;25499;53.958;10.970;2023-02-05T09:59:30;103326.28;;;-0.04;84.50
39823;BME280;25499;53.958;10.970;2023-02-05T10:01:58;103335.22;;;0.02;84.17
39823;BME280;25499;53.958;10.970;2023-02-05T10:04:25;103348.03;;;0.22;84.16
39823;BME280;25499;53.958;10.970;2023-02-05T10:32:08;103333.41;;;1.30;80.50
39823;BME280;25499;53.958;10.970;2023-02-05T10:37:17;103294.13;;;3.87;74.84
39823;BME280;25499;53.958;10.970;2023-02-05T10:39:44;103264.50;;;4.07;72.67
39823;BME280;25499;53.958;10.970;2023-02-05T10:45:07;103242.13;;;2.52;72.44
39823;BME280;25499;53.958;10.970;2023-02-05T10:47:52;103245.44;;;2.02;73.42
39823;BME280;25499;53.958;10.970;2023-02-05T10:53:11;103287.50;;;1.57;75.67
39823;BME280;25499;53.958;10.970;2023-02-05T10:55:37;103305.56;;;1.46;76.18
39823;BME280;25499;53.958;10.970;2023-02-05T10:59:05;103307.50;;;1.27;76.91
39823;BME280;25499;53.958;10.970;2023-02-05T11:01:10;103335.28;;;1.21;77.61
39823;BME280;25499;53.958;10.970;2023-02-05T11:03:38;103345.69;;;1.12;78.42
39823;BME280;25499;53.958;10.970;2023-02-05T11:06:08;103354.44;;;1.14;78.70
39823;BME280;25499;53.958;10.970;2023-02-05T11:08:40;103366.34;;;1.14;78.92
39823;BME280;25499;53.958;10.970;2023-02-05T11:11:06;103360.50;;;1.04;78.99
39823;BME280;25499;53.958;10.970;2023-02-05T11:13:39;103368.38;;;1.18;79.41
39823;BME280;25499;53.958;10.970;2023-02-05T11:16:07;103371.25;;;1.10;79.32
39823;BME280;25499;53.958;10.970;2023-02-05T11:18:43;103382.66;;;1.14;79.71
39823;BME280;25499;53.958;10.970;2023-02-05T11:21:10;103390.47;;;1.16;80.14
39823;BME280;25499;53.958;10.970;2023-02-05T11:23:37;103391.78;;;1.10;80.07
39823;BME280;25499;53.958;10.970;2023-02-05T11:26:21;103397.44;;;1.06;80.49
39823;BME280;25499;53.958;10.970;2023-02-05T11:28:47;103391.66;;;1.09;80.42
39823;BME280;25499;53.958;10.970;2023-02-05T11:31:24;103391.03;;;1.01;80.25
39823;BME280;25499;53.958;10.970;2023-02-05T11:33:50;103385.16;;;1.02;80.17
39823;BME280;25499;53.958;10.970;2023-02-05T11:36:25;103393.47;;;1.00;80.38
39823;BME280;25499;53.958;10.970;2023-02-05T11:38:53;103382.97;;;0.97;80.52
39823;BME280;25499;53.958;10.970;2023-02-05T11:41:39;103401.53;;;1.04;80.81
39823;BME280;25499;53.958;10.970;2023-02-05T11:44:28;103409.00;;;1.01;80.53
39823;BME280;25499;53.958;10.970;2023-02-05T11:46:58;103409.28;;;0.94;80.45
39823;BME280;25499;53.958;10.970;2023-02-05T11:49:34;103414.94;;;0.90;80.83
39823;BME280;25499;53.958;10.970;2023-02-05T11:52:15;103422.53;;;0.88;80.74
39823;BME280;25499;53.958;10.970;2023-02-05T11:54:47;103411.47;;;0.89;80.93
39823;BME280;25499;53.958;10.970;2023-02-05T12:02:35;103433.13;;;0.93;81.76
39823;BME280;25499;53.958;10.970;2023-02-05T12:07:54;103421.34;;;0.95;81.81
39823;BME280;25499;53.958;10.970;2023-02-05T12:13:08;103423.38;;;0.99;82.03
39823;BME280;25499;53.958;10.970;2023-02-05T12:15:40;103420.06;;;1.00;81.83
39823;BME280;25499;53.958;10.970;2023-02-05T12:18:20;103409.31;;;1.16;81.68
39823;BME280;25499;53.958;10.970;2023-02-05T12:21:09;103393.56;;;1.11;81.61
39823;BME280;25499;53.958;10.970;2023-02-05T12:39:17;103371.13;;;1.31;81.63
39823;BME280;25499;53.958;10.970;2023-02-05T12:41:54;103367.13;;;1.35;80.95
39823;BME280;25499;53.958;10.970;2023-02-05T12:50:25;103340.06;;;2.43;78.88
39823;BME280;25499;53.958;10.970;2023-02-05T12:58:33;103309.00;;;2.89;74.10
39823;BME280;25499;53.958;10.970;2023-02-05T13:01:05;103311.66;;;2.65;74.65
39823;BME280;25499;53.958;10.970;2023-02-05T13:03:38;103334.34;;;3.08;75.37
39823;BME280;25499;53.958;10.970;2023-02-05T13:06:15;103315.78;;;3.00;74.76
39823;BME280;25499;53.958;10.970;2023-02-05T13:09:05;103304.22;;;3.07;74.76
39823;BME280;25499;53.958;10.970;2023-02-05T13:16:42;103282.53;;;2.66;74.29
39823;BME280;25499;53.958;10.970;2023-02-05T13:19:23;103285.47;;;3.46;73.65
39823;BME280;25499;53.958;10.970;2023-02-05T13:21:52;103266.78;;;3.62;72.66
39823;BME280;25499;53.958;10.970;2023-02-05T13:24:55;103247.22;;;3.01;72.59
39823;BME280;25499;53.958;10.970;2023-02-05T13:27:42;103249.03;;;2.53;73.19
39823;BME280;25499;53.958;10.970;2023-02-05T13:30:38;103270.09;;;2.23;74.30
39823;BME280;25499;53.958;10.970;2023-02-05T13:33:06;103281.41;;;2.02;74.97
39823;BME280;25499;53.958;10.970;2023-02-05T13:35:38;103286.44;;;1.77;75.42
39823;BME280;25499;53.958;10.970;2023-02-05T13:44:50;103356.59;;;1.54;77.74
39823;BME280;25499;53.958;10.970;2023-02-05T13:49:50;103364.19;;;1.30;78.56
39823;BME280;25499;53.958;10.970;2023-02-05T13:55:04;103370.75;;;1.48;78.68
39823;BME280;25499;53.958;10.970;2023-02-05T14:00:33;103383.38;;;1.57;79.01
39823;BME280;25499;53.958;10.970;2023-02-05T14:03:00;103376.75;;;1.49;78.72
39823;BME280;25499;53.958;10.970;2023-02-05T14:05:40;103370.91;;;1.62;78.92
39823;BME280;25499;53.958;10.970;2023-02-05T14:08:22;103371.44;;;1.58;78.91
39823;BME280;25499;53.958;10.970;2023-02-05T14:10:57;103369.88;;;1.48;79.18
39823;BME280;25499;53.958;10.970;2023-02-05T14:13:29;103392.66;;;1.55;79.44
39823;BME280;25499;53.958;10.970;2023-02-05T14:19:02;103401.91;;;1.53;79.41
39823;BME280;25499;53.958;10.970;2023-02-05T14:26:53;103390.72;;;1.53;80.25
39823;BME280;25499;53.958;10.970;2023-02-05T14:32:02;103364.44;;;1.33;80.19
39823;BME280;25499;53.958;10.970;2023-02-05T14:36:58;103401.13;;;1.32;80.88
39823;BME280;25499;53.958;10.970;2023-02-05T14:39:28;103419.66;;;1.28;81.23
39823;BME280;25499;53.958;10.970;2023-02-05T14:41:57;103422.22;;;1.28;81.09
39823;BME280;25499;53.958;10.970;2023-02-05T14:44:34;103443.94;;;1.43;81.41
39823;BME280;25499;53.958;10.970;2023-02-05T14:47:14;103462.72;;;1.32;81.68
39823;BME280;25499;53.958;10.970;2023-02-05T14:49:45;103471.03;;;1.40;81.80
39823;BME280;25499;53.958;10.970;2023-02-05T14:52:29;103465.03;;;1.39;81.80
39823;BME280;25499;53.958;10.970;2023-02-05T14:56:01;103468.66;;;1.31;81.70
39823;BME280;25499;53.958;10.970;2023-02-05T14:58:02;103486.06;;;1.35;82.48
39823;BME280;25499;53.958;10.970;2023-02-05T15:00:38;103479.88;;;1.43;82.47
39823;BME280;25499;53.958;10.970;2023-02-05T15:13:28;103438.97;;;1.57;81.72
39823;BME280;25499;53.958;10.970;2023-02-05T15:16:07;103446.44;;;1.54;82.12
39823;BME280;25499;53.958;10.970;2023-02-05T15:18:56;103435.69;;;1.47;81.86
39823;BME280;25499;53.958;10.970;2023-02-05T15:21:29;103435.22;;;1.41;82.19
39823;BME280;25499;53.958;10.970;2023-02-05T15:24:15;103438.09;;;1.34;83.08
39823;BME280;25499;53.958;10.970;2023-02-05T15:27:14;103451.44;;;1.30;83.87
39823;BME280;25499;53.958;10.970;2023-02-05T15:29:46;103456.28;;;1.37;83.91
39823;BME280;25499;53.958;10.970;2023-02-05T15:32:22;103452.00;;;1.26;83.83
39823;BME280;25499;53.958;10.970;2023-02-05T15:37:34;103467.44;;;1.16;84.01
39823;BME280;25499;53.958;10.970;2023-02-05T15:40:11;103480.22;;;1.26;84.87
39823;BME280;25499;53.958;10.970;2023-02-05T15:42:43;103474.09;;;1.14;84.72
39823;BME280;25499;53.958;10.970;2023-02-05T15:45:24;103484.69;;;1.28;85.08
39823;BME280;25499;53.958;10.970;2023-02-05T15:50:27;103477.75;;;1.05;85.54
39823;BME280;25499;53.958;10.970;2023-02-05T15:52:53;103489.06;;;0.97;86.17
39823;BME280;25499;53.958;10.970;2023-02-05T15:55:20;103492.41;;;0.86;86.46
39823;BME280;25499;53.958;10.970;2023-02-05T15:57:48;103502.53;;;0.84;87.07
39823;BME280;25499;53.958;10.970;2023-02-05T16:00:25;103511.13;;;0.85;87.57
39823;BME280;25499;53.958;10.970;2023-02-05T16:02:58;103515.81;;;1.11;87.66
39823;BME280;25499;53.958;10.970;2023-02-05T16:05:24;103513.63;;;1.16;87.73
39823;BME280;25499;53.958;10.970;2023-02-05T16:07:50;103507.47;;;1.03;87.44
39823;BME280;25499;53.958;10.970;2023-02-05T16:10:28;103517.88;;;1.05;87.30
39823;BME280;25499;53.958;10.970;2023-02-05T16:13:06;103517.53;;;0.80;87.58
39823;BME280;25499;53.958;10.970;2023-02-05T16:15:52;103530.13;;;0.87;88.20
39823;BME280;25499;53.958;10.970;2023-02-05T16:18:36;103530.75;;;0.84;88.45
39823;BME280;25499;53.958;10.970;2023-02-05T16:21:15;103525.47;;;0.93;88.70
39823;BME280;25499;53.958;10.970;2023-02-05T16:23:47;103512.38;;;1.00;88.23
39823;BME280;25499;53.958;10.970;2023-02-05T16:26:29;103511.59;;;1.01;87.97
39823;BME280;25499;53.958;10.970;2023-02-05T16:29:01;103502.22;;;1.02;87.49
39823;BME280;25499;53.958;10.970;2023-02-05T16:31:28;103498.16;;;0.93;87.42
39823;BME280;25499;53.958;10.970;2023-02-05T16:36:28;103516.25;;;0.74;88.22
39823;BME280;25499;53.958;10.970;2023-02-05T16:38:58;103542.81;;;0.75;88.39
39823;BME280;25499;53.958;10.970;2023-02-05T16:41:28;103541.00;;;0.74;88.58
39823;BME280;25499;53.958;10.970;2023-02-05T16:43:57;103550.25;;;0.72;88.63
39823;BME280;25499;53.958;10.970;2023-02-05T16:46:29;103545.41;;;0.65;88.91
39823;BME280;25499;53.958;10.970;2023-02-05T16:48:57;103544.47;;;0.64;88.76
39823;BME280;25499;53.958;10.970;2023-02-05T16:54:20;103542.72;;;0.63;88.95
39823;BME280;25499;53.958;10.970;2023-02-05T16:59:30;103542.44;;;0.70;88.93
39823;BME280;25499;53.958;10.970;2023-02-05T17:01:57;103551.81;;;0.70;88.89
39823;BME280;25499;53.958;10.970;2023-02-05T17:04:26;103570.09;;;0.85;89.15
39823;BME280;25499;53.958;10.970;2023-02-05T17:06:54;103573.44;;;0.84;88.92
39823;BME280;25499;53.958;10.970;2023-02-05T17:09:28;103593.19;;;0.85;88.85
39823;BME280;25499;53.958;10.970;2023-02-05T17:15:23;103596.16;;;0.69;89.68
39823;BME280;25499;53.958;10.970;2023-02-05T17:17:51;103601.13;;;0.67;90.34
39823;BME280;25499;53.958;10.970;2023-02-05T17:25:49;103600.88;;;0.95;90.25
39823;BME280;25499;53.958;10.970;2023-02-05T17:28:21;103599.47;;;0.88;90.38
39823;BME280;25499;53.958;10.970;2023-02-05T17:30:49;103598.06;;;0.82;90.48
39823;BME280;25499;53.958;10.970;2023-02-05T17:33:18;103598.56;;;0.78;90.79
39823;BME280;25499;53.958;10.970;2023-02-05T17:35:43;103598.94;;;0.92;91.01
39823;BME280;25499;53.958;10.970;2023-02-05T17:38:09;103601.13;;;0.88;90.59
39823;BME280;25499;53.958;10.970;2023-02-05T17:40:35;103589.09;;;0.87;90.57
39823;BME280;25499;53.958;10.970;2023-02-05T17:43:00;103586.50;;;1.07;90.11
39823;BME280;25499;53.958;10.970;2023-02-05T17:45:31;103589.53;;;1.14;89.70
39823;BME280;25499;53.958;10.970;2023-02-05T17:47:56;103585.97;;;1.01;89.45
39823;BME280;25499;53.958;10.970;2023-02-05T17:50:23;103586.50;;;1.07;89.18
39823;BME280;25499;53.958;10.970;2023-02-05T17:52:49;103582.88;;;1.16;88.96
39823;BME280;25499;53.958;10.970;2023-02-05T17:55:18;103583.25;;;1.10;88.99
39823;BME280;25499;53.958;10.970;2023-02-05T17:57:44;103571.59;;;1.03;88.71
39823;BME280;25499;53.958;10.970;2023-02-05T18:00:16;103579.31;;;1.03;88.57
39823;BME280;25499;53.958;10.970;2023-02-05T18:02:42;103590.34;;;1.13;88.72
39823;BME280;25499;53.958;10.970;2023-02-05T18:05:08;103597.00;;;1.10;88.65
39823;BME280;25499;53.958;10.970;2023-02-05T18:07:43;103599.59;;;1.00;88.80
39823;BME280;25499;53.958;10.970;2023-02-05T18:10:15;103613.19;;;0.99;88.94
39823;BME280;25499;53.958;10.970;2023-02-05T18:12:41;103608.81;;;0.98;88.95
39823;BME280;25499;53.958;10.970;2023-02-05T18:15:07;103619.06;;;0.98;89.13
39823;BME280;25499;53.958;10.970;2023-02-05T18:17:32;103624.06;;;0.97;89.57
39823;BME280;25499;53.958;10.970;2023-02-05T18:19:58;103624.22;;;0.88;90.08
39823;BME280;25499;53.958;10.970;2023-02-05T18:22:23;103644.09;;;0.90;90.70
39823;BME280;25499;53.958;10.970;2023-02-05T18:24:49;103651.66;;;0.89;91.79
39823;BME280;25499;53.958;10.970;2023-02-05T18:27:14;103658.19;;;1.06;92.50
39823;BME280;25499;53.958;10.970;2023-02-05T18:29:40;103663.94;;;1.03;92.88
39823;BME280;25499;53.958;10.970;2023-02-05T18:32:06;103655.91;;;0.99;92.91
39823;BME280;25499;53.958;10.970;2023-02-05T18:34:31;103657.28;;;0.85;93.66
39823;BME280;25499;53.958;10.970;2023-02-05T18:36:57;103658.06;;;0.73;94.28
39823;BME280;25499;53.958;10.970;2023-02-05T18:39:22;103659.75;;;0.93;94.76
39823;BME280;25499;53.958;10.970;2023-02-05T18:41:53;103665.75;;;0.84;95.20
39823;BME280;25499;53.958;10.970;2023-02-05T18:44:18;103665.38;;;0.89;95.79
39823;BME280;25499;53.958;10.970;2023-02-05T18:46:43;103666.53;;;0.83;96.23
39823;BME280;25499;53.958;10.970;2023-02-05T18:49:09;103669.09;;;0.93;96.69
39823;BME280;25499;53.958;10.970;2023-02-05T18:51:34;103680.75;;;0.89;96.90
39823;BME280;25499;53.958;10.970;2023-02-05T18:54:00;103681.41;;;0.97;97.27
39823;BME280;25499;53.958;10.970;2023-02-05T18:56:26;103675.13;;;0.93;97.38
39823;BME280;25499;53.958;10.970;2023-02-05T18:58:57;103685.13;;;0.90;97.62
39823;BME280;25499;53.958;10.970;2023-02-05T19:01:35;103691.03;;;1.00;97.80
39823;BME280;25499;53.958;10.970;2023-02-05T19:04:02;103688.72;;;1.03;97.63
39823;BME280;25499;53.958;10.970;2023-02-05T19:06:28;103691.03;;;0.89;97.60
39823;BME280;25499;53.958;10.970;2023-02-05T19:08:55;103691.41;;;0.94;97.98
39823;BME280;25499;53.958;10.970;2023-02-05T19:11:22;103693.72;;;0.91;98.33
39823;BME280;25499;53.958;10.970;2023-02-05T19:14:03;103698.44;;;0.86;98.48
39823;BME280;25499;53.958;10.970;2023-02-05T19:16:31;103713.47;;;0.82;99.04
39823;BME280;25499;53.958;10.970;2023-02-05T19:18:57;103697.03;;;0.80;99.08
39823;BME280;25499;53.958;10.970;2023-02-05T19:21:24;103704.72;;;0.90;99.32
39823;BME280;25499;53.958;10.970;2023-02-05T19:23:55;103707.41;;;0.81;99.46
39823;BME280;25499;53.958;10.970;2023-02-05T19:26:24;103708.31;;;0.71;99.72
39823;BME280;25499;53.958;10.970;2023-02-05T19:28:57;103712.41;;;0.69;99.92
39823;BME280;25499;53.958;10.970;2023-02-05T19:31:25;103704.50;;;0.77;100.00
39823;BME280;25499;53.958;10.970;2023-02-05T19:33:51;103708.81;;;0.78;100.00
39823;BME280;25499;53.958;10.970;2023-02-05T19:36:16;103700.75;;;0.73;100.00
39823;BME280;25499;53.958;10.970;2023-02-05T19:38:44;103718.59;;;0.71;100.00
39823;BME280;25499;53.958;10.970;2023-02-05T19:41:12;103711.13;;;0.74;100.00
39823;BME280;25499;53.958;10.970;2023-02-05T19:43:38;103708.34;;;0.82;100.00
39823;BME280;25499;53.958;10.970;2023-02-05T19:46:06;103717.28;;;0.66;100.00
39823;BME280;25499;53.958;10.970;2023-02-05T19:48:32;103726.50;;;0.64;100.00
39823;BME280;25499;53.958;10.970;2023-02-05T19:51:05;103724.84;;;0.65;100.00
39823;BME280;25499;53.958;10.970;2023-02-05T19:53:30;103722.44;;;0.77;100.00
39823;BME280;25499;53.958;10.970;2023-02-05T19:56:08;103723.75;;;0.92;100.00
39823;BME280;25499;53.958;10.970;2023-02-05T19:58:39;103716.03;;;0.92;100.00
39823;BME280;25499;53.958;10.970;2023-02-05T20:01:33;103706.28;;;0.88;100.00
39823;BME280;25499;53.958;10.970;2023-02-05T20:04:03;103700.75;;;0.73;100.00
39823;BME280;25499;53.958;10.970;2023-02-05T20:06:29;103700.88;;;0.74;100.00
39823;BME280;25499;53.958;10.970;2023-02-05T20:08:55;103708.69;;;0.66;100.00
39823;BME280;25499;53.958;10.970;2023-02-05T20:11:20;103710.34;;;0.65;100.00
39823;BME280;25499;53.958;10.970;2023-02-05T20:13:46;103703.81;;;0.59;100.00
39823;BME280;25499;53.958;10.970;2023-02-05T20:16:17;103713.19;;;0.68;100.00
39823;BME280;25499;53.958;10.970;2023-02-05T20:18:43;103717.16;;;0.65;100.00
39823;BME280;25499;53.958;10.970;2023-02-05T20:21:11;103729.84;;;0.63;100.00
39823;BME280;25499;53.958;10.970;2023-02-05T20:23:37;103732.88;;;0.59;100.00
39823;BME280;25499;53.958;10.970;2023-02-05T20:26:03;103727.50;;;0.56;100.00
39823;BME280;25499;53.958;10.970;2023-02-05T20:28:32;103735.09;;;0.54;100.00
39823;BME280;25499;53.958;10.970;2023-02-05T20:30:58;103737.53;;;0.63;100.00
39823;BME280;25499;53.958;10.970;2023-02-05T20:33:42;103736.63;;;0.63;100.00
39823;BME280;25499;53.958;10.970;2023-02-05T20:36:10;103727.03;;;0.70;100.00
39823;BME280;25499;53.958;10.970;2023-02-05T20:38:37;103725.22;;;0.69;100.00
39823;BME280;25499;53.958;10.970;2023-02-05T20:43:35;103719.97;;;0.68;100.00
39823;BME280;25499;53.958;10.970;2023-02-05T20:46:02;103731.28;;;0.70;100.00
39823;BME280;25499;53.958;10.970;2023-02-05T20:48:28;103726.50;;;0.64;100.00
39823;BME280;25499;53.958;10.970;2023-02-05T20:50:54;103723.94;;;0.64;100.00
39823;BME280;25499;53.958;10.970;2023-02-05T20:53:20;103726.25;;;0.61;100.00
39823;BME280;25499;53.958;10.970;2023-02-05T20:55:45;103724.44;;;0.60;100.00
39823;BME280;25499;53.958;10.970;2023-02-05T20:58:10;103727.50;;;0.56;100.00
39823;BME280;25499;53.958;10.970;2023-02-05T21:00:36;103738.00;;;0.59;100.00
39823;BME280;25499;53.958;10.970;2023-02-05T21:03:01;103743.44;;;0.72;100.00
39823;BME280;25499;53.958;10.970;2023-02-05T21:05:27;103736.63;;;0.73;100.00
39823;BME280;25499;53.958;10.970;2023-02-05T21:07:52;103736.88;;;0.66;100.00
39823;BME280;25499;53.958;10.970;2023-02-05T21:10:18;103732.69;;;0.66;100.00
39823;BME280;25499;53.958;10.970;2023-02-05T21:12:43;103732.03;;;0.69;100.00
39823;BME280;25499;53.958;10.970;2023-02-05T21:15:09;103738.03;;;0.69;100.00
39823;BME280;25499;53.958;10.970;2023-02-05T21:17:34;103737.28;;;0.70;100.00
39823;BME280;25499;53.958;10.970;2023-02-05T21:20:01;103736.75;;;0.64;100.00
